createdAt,value
2017-07-28T00:01:30.761Z,18.30
2017-07-28T00:04:34.805Z,18.40
2017-07-28T00:07:38.146Z,18.40
2017-07-28T00:10:41.450Z,18.40
2017-07-28T00:13:45.535Z,18.40
2017-07-28T00:16:48.815Z,18.40
2017-07-28T00:19:52.127Z,18.30
2017-07-28T00:22:55.429Z,18.20
2017-07-28T00:25:58.750Z,18.30
2017-07-28T00:29:03.178Z,18.50
2017-07-28T00:32:07.222Z,18.60
2017-07-28T00:35:10.561Z,18.60
2017-07-28T00:38:13.863Z,18.60
2017-07-28T00:41:17.201Z,18.50
2017-07-28T00:44:20.500Z,18.40
2017-07-28T00:47:23.829Z,18.40
2017-07-28T00:50:27.117Z,18.40
2017-07-28T00:53:30.457Z,18.40
2017-07-28T00:56:34.497Z,18.40
2017-07-28T00:59:37.833Z,18.40
2017-07-28T01:02:41.272Z,18.40
2017-07-28T01:05:45.350Z,18.40
2017-07-28T01:08:48.691Z,18.40
2017-07-28T01:11:52.757Z,18.40
2017-07-28T01:14:56.090Z,18.40
2017-07-28T01:17:59.403Z,18.30
2017-07-28T01:21:02.736Z,18.30
2017-07-28T01:24:06.002Z,18.00
2017-07-28T01:27:09.341Z,17.90
2017-07-28T01:30:12.681Z,18.00
2017-07-28T01:33:16.752Z,17.90
2017-07-28T01:36:20.067Z,17.90
2017-07-28T01:39:23.368Z,17.70
2017-07-28T01:42:26.702Z,17.60
2017-07-28T01:45:29.987Z,17.70
2017-07-28T01:48:33.326Z,17.80
2017-07-28T01:51:36.623Z,17.80
2017-07-28T01:54:39.934Z,17.90
2017-07-28T01:57:43.376Z,17.90
2017-07-28T02:00:46.662Z,17.80
2017-07-28T02:03:50.877Z,17.50
2017-07-28T02:06:54.946Z,17.50
2017-07-28T02:09:58.285Z,17.50
2017-07-28T02:13:01.587Z,17.60
2017-07-28T02:16:05.841Z,17.50
2017-07-28T02:19:09.148Z,17.50
2017-07-28T02:22:12.480Z,17.50
2017-07-28T02:25:15.788Z,17.50
2017-07-28T02:28:19.862Z,17.50
2017-07-28T02:31:23.138Z,17.50
2017-07-28T02:34:26.441Z,17.50
2017-07-28T02:37:29.730Z,17.40
2017-07-28T02:40:33.065Z,17.20
2017-07-28T02:43:36.345Z,17.30
2017-07-28T02:46:39.696Z,17.40
2017-07-28T02:49:43.020Z,17.40
2017-07-28T02:52:46.335Z,17.40
2017-07-28T02:55:49.609Z,17.40
2017-07-28T02:58:52.922Z,17.20
2017-07-28T03:01:56.360Z,17.20
2017-07-28T03:05:00.408Z,17.10
2017-07-28T03:08:03.733Z,17.10
2017-07-28T03:11:07.014Z,17.10
2017-07-28T03:14:10.330Z,17.20
2017-07-28T03:17:13.605Z,17.30
2017-07-28T03:20:16.944Z,17.20
2017-07-28T03:23:20.999Z,17.20
2017-07-28T03:26:24.306Z,17.20
2017-07-28T03:29:27.620Z,17.20
2017-07-28T03:32:30.919Z,17.10
2017-07-28T03:35:34.231Z,17.00
2017-07-28T03:38:37.540Z,16.90
2017-07-28T03:41:41.657Z,17.00
2017-07-28T03:44:45.715Z,17.20
2017-07-28T03:47:49.029Z,17.20
2017-07-28T03:50:52.306Z,17.30
2017-07-28T03:53:55.656Z,17.40
2017-07-28T03:56:59.861Z,17.30
2017-07-28T04:00:03.168Z,17.30
2017-07-28T04:03:06.508Z,17.10
2017-07-28T04:06:09.808Z,17.00
2017-07-28T04:09:13.136Z,17.10
2017-07-28T04:12:16.414Z,17.10
2017-07-28T04:15:19.726Z,16.90
2017-07-28T04:18:23.029Z,16.90
2017-07-28T04:21:26.368Z,16.80
2017-07-28T04:24:29.681Z,16.70
2017-07-28T04:27:33.016Z,16.80
2017-07-28T04:30:36.317Z,17.00
2017-07-28T04:33:39.658Z,17.00
2017-07-28T04:36:42.978Z,16.80
2017-07-28T04:39:46.286Z,16.90
2017-07-28T04:42:49.728Z,16.90
2017-07-28T04:45:53.838Z,16.90
2017-07-28T04:48:57.940Z,16.90
2017-07-28T04:52:01.235Z,16.90
2017-07-28T04:55:04.553Z,16.80
2017-07-28T04:58:08.599Z,16.70
2017-07-28T05:01:11.907Z,16.70
2017-07-28T05:04:15.345Z,16.80
2017-07-28T05:07:18.632Z,16.80
2017-07-28T05:10:22.046Z,16.70
2017-07-28T05:13:26.116Z,16.60
2017-07-28T05:16:29.452Z,16.60
2017-07-28T05:19:33.532Z,16.70
2017-07-28T05:22:36.845Z,16.70
2017-07-28T05:25:40.409Z,16.80
2017-07-28T05:28:43.694Z,16.80
2017-07-28T05:31:47.006Z,16.90
2017-07-28T05:34:50.312Z,16.80
2017-07-28T05:37:53.625Z,16.70
2017-07-28T05:40:56.905Z,16.70
2017-07-28T05:44:00.240Z,16.70
2017-07-28T05:47:04.309Z,16.90
2017-07-28T05:50:07.644Z,16.90
2017-07-28T05:53:10.981Z,16.80
2017-07-28T05:56:14.258Z,16.80
2017-07-28T05:59:18.441Z,16.80
2017-07-28T06:02:21.749Z,16.80
2017-07-28T06:05:25.062Z,16.80
2017-07-28T06:08:29.129Z,17.00
2017-07-28T06:11:32.441Z,17.00
2017-07-28T06:14:35.741Z,16.90
2017-07-28T06:17:39.088Z,17.00
2017-07-28T06:20:42.510Z,17.00
2017-07-28T06:23:45.785Z,17.00
2017-07-28T06:26:49.770Z,17.10
2017-07-28T06:29:53.834Z,17.00
2017-07-28T06:32:57.143Z,17.00
2017-07-28T06:36:00.422Z,17.00
2017-07-28T06:39:03.780Z,17.20
2017-07-28T06:42:07.061Z,17.20
2017-07-28T06:45:11.133Z,17.00
2017-07-28T06:48:14.553Z,17.00
2017-07-28T06:51:17.839Z,17.10
2017-07-28T06:54:21.149Z,17.20
2017-07-28T06:57:24.447Z,17.20
2017-07-28T07:00:27.782Z,17.20
2017-07-28T07:03:31.088Z,17.30
2017-07-28T07:06:34.425Z,17.40
2017-07-28T07:09:37.918Z,17.40
2017-07-28T07:12:41.199Z,17.60
2017-07-28T07:15:44.506Z,17.50
2017-07-28T07:18:47.809Z,17.60
2017-07-28T07:21:51.128Z,17.50
2017-07-28T07:24:54.406Z,17.70
2017-07-28T07:27:57.714Z,17.70
2017-07-28T07:31:00.998Z,17.70
2017-07-28T07:34:04.310Z,17.60
2017-07-28T07:37:07.591Z,17.70
2017-07-28T07:40:10.904Z,17.80
2017-07-28T07:43:15.293Z,17.80
2017-07-28T07:46:18.598Z,17.80
2017-07-28T07:49:21.909Z,17.80
2017-07-28T07:52:25.213Z,17.70
2017-07-28T07:55:29.291Z,17.70
2017-07-28T07:58:32.598Z,17.70
2017-07-28T08:01:35.942Z,17.80
2017-07-28T08:04:39.283Z,17.90
2017-07-28T08:07:42.628Z,17.90
2017-07-28T08:10:46.729Z,17.90
2017-07-28T08:13:50.005Z,17.90
2017-07-28T08:16:53.331Z,18.00
2017-07-28T08:19:57.400Z,18.10
2017-07-28T08:23:00.721Z,18.10
2017-07-28T08:26:04.061Z,18.10
2017-07-28T08:29:07.365Z,18.10
2017-07-28T08:32:10.678Z,18.00
2017-07-28T08:35:13.962Z,18.20
2017-07-28T08:38:17.270Z,18.30
2017-07-28T08:41:20.578Z,18.20
2017-07-28T08:44:23.882Z,18.20
2017-07-28T08:47:27.214Z,18.30
2017-07-28T08:50:30.501Z,18.50
2017-07-28T08:53:34.605Z,18.50
2017-07-28T08:56:37.978Z,18.40
2017-07-28T08:59:41.297Z,18.60
2017-07-28T09:02:44.634Z,18.60
2017-07-28T09:05:47.926Z,18.60
2017-07-28T09:08:51.262Z,18.60
2017-07-28T09:11:54.578Z,18.70
2017-07-28T09:14:57.876Z,18.80
2017-07-28T09:18:01.213Z,18.80
2017-07-28T09:21:04.496Z,18.70
2017-07-28T09:24:07.849Z,18.70
2017-07-28T09:27:11.181Z,18.60
2017-07-28T09:30:15.222Z,18.80
2017-07-28T09:33:18.567Z,18.80
2017-07-28T09:36:21.858Z,18.90
2017-07-28T09:39:25.178Z,19.00
2017-07-28T09:42:29.231Z,19.10
2017-07-28T09:45:32.574Z,19.10
2017-07-28T09:48:35.893Z,19.00
2017-07-28T09:51:39.962Z,18.90
2017-07-28T09:54:43.271Z,18.90
2017-07-28T09:57:46.559Z,19.10
2017-07-28T10:00:49.902Z,19.10
2017-07-28T10:03:53.237Z,19.40
2017-07-28T10:06:56.743Z,19.60
2017-07-28T10:10:00.018Z,19.60
2017-07-28T10:13:03.349Z,19.70
2017-07-28T10:16:06.648Z,19.50
2017-07-28T10:19:09.992Z,19.60
2017-07-28T10:22:13.286Z,19.60
2017-07-28T10:25:16.602Z,19.80
2017-07-28T10:28:20.122Z,20.00
2017-07-28T10:31:23.405Z,20.00
2017-07-28T10:34:26.721Z,19.80
2017-07-28T10:37:30.003Z,19.60
2017-07-28T10:40:33.325Z,19.50
2017-07-28T10:43:36.631Z,19.60
2017-07-28T10:46:40.710Z,19.50
2017-07-28T10:49:44.029Z,19.50
2017-07-28T10:52:47.336Z,19.40
2017-07-28T10:55:50.662Z,19.60
2017-07-28T10:58:53.955Z,19.80
2017-07-28T11:01:57.269Z,19.70
2017-07-28T11:05:00.572Z,19.70
2017-07-28T11:08:04.014Z,19.70
2017-07-28T11:11:07.330Z,19.60
2017-07-28T11:14:11.425Z,19.40
2017-07-28T11:17:15.637Z,19.40
2017-07-28T11:20:18.969Z,19.30
2017-07-28T11:23:22.300Z,19.20
2017-07-28T11:26:25.579Z,19.20
2017-07-28T11:29:28.890Z,19.30
2017-07-28T11:32:32.197Z,19.30
2017-07-28T11:35:35.528Z,19.30
2017-07-28T11:38:39.620Z,19.40
2017-07-28T11:41:42.898Z,19.40
2017-07-28T11:44:46.207Z,19.40
2017-07-28T11:47:49.511Z,19.30
2017-07-28T11:50:52.865Z,19.40
2017-07-28T11:53:56.216Z,19.30
2017-07-28T11:56:59.490Z,19.30
2017-07-28T12:00:02.803Z,19.20
2017-07-28T12:03:06.278Z,19.10
2017-07-28T12:06:09.760Z,19.30
2017-07-28T12:09:13.084Z,19.80
2017-07-28T12:12:16.501Z,20.40
2017-07-28T12:15:19.805Z,20.70
2017-07-28T12:18:23.984Z,21.10
2017-07-28T12:21:27.285Z,21.20
2017-07-28T12:24:30.621Z,21.10
2017-07-28T12:27:34.675Z,21.40
2017-07-28T12:30:37.982Z,21.40
2017-07-28T12:33:41.421Z,21.60
2017-07-28T12:36:44.697Z,21.70
2017-07-28T12:39:48.018Z,21.70
2017-07-28T12:42:52.079Z,21.30
2017-07-28T12:45:55.405Z,21.30
2017-07-28T12:48:58.710Z,21.10
2017-07-28T12:52:02.822Z,21.00
2017-07-28T12:55:06.117Z,21.00
2017-07-28T12:58:09.434Z,21.10
2017-07-28T13:01:13.510Z,20.80
2017-07-28T13:04:16.800Z,20.80
2017-07-28T13:07:20.125Z,20.60
2017-07-28T13:10:23.402Z,20.40
2017-07-28T13:13:26.721Z,20.20
2017-07-28T13:16:30.029Z,20.20
2017-07-28T13:19:34.126Z,20.30
2017-07-28T13:22:37.402Z,20.30
2017-07-28T13:25:40.742Z,20.30
2017-07-28T13:28:44.052Z,20.20
2017-07-28T13:31:47.337Z,20.10
2017-07-28T13:34:50.651Z,20.00
2017-07-28T13:37:53.935Z,19.90
2017-07-28T13:40:57.245Z,19.80
2017-07-28T13:44:00.546Z,19.80
2017-07-28T13:47:03.876Z,19.80
2017-07-28T13:50:07.165Z,19.70
2017-07-28T13:53:10.497Z,19.70
2017-07-28T13:56:14.569Z,19.80
2017-07-28T13:59:17.873Z,19.80
2017-07-28T14:02:21.150Z,19.80
2017-07-28T14:05:24.483Z,19.80
2017-07-28T14:08:27.937Z,19.90
2017-07-28T14:11:31.222Z,19.90
2017-07-28T14:14:34.539Z,20.00
2017-07-28T14:17:37.841Z,20.00
2017-07-28T14:20:41.154Z,20.10
2017-07-28T14:23:44.429Z,20.00
2017-07-28T14:26:47.765Z,20.00
2017-07-28T14:29:51.333Z,20.10
2017-07-28T14:32:54.641Z,20.10
2017-07-28T14:35:57.977Z,20.20
2017-07-28T14:39:01.293Z,20.20
2017-07-28T14:42:04.602Z,20.30
2017-07-28T14:45:07.906Z,20.30
2017-07-28T14:48:11.236Z,20.40
2017-07-28T14:51:14.538Z,20.40
2017-07-28T14:54:17.849Z,20.40
2017-07-28T14:57:21.926Z,20.30
2017-07-28T15:00:25.210Z,20.30
2017-07-28T15:03:28.622Z,20.30
2017-07-28T15:06:31.911Z,20.30
2017-07-28T15:09:35.220Z,20.30
2017-07-28T15:12:38.501Z,20.40
2017-07-28T15:15:41.834Z,20.40
2017-07-28T15:18:45.877Z,20.50
2017-07-28T15:21:49.181Z,20.50
2017-07-28T15:24:52.538Z,20.50
2017-07-28T15:27:56.617Z,20.40
2017-07-28T15:30:59.934Z,20.40
2017-07-28T15:34:03.237Z,20.40
2017-07-28T15:37:06.556Z,20.40
2017-07-28T15:40:09.862Z,20.50
2017-07-28T15:43:13.199Z,20.50
2017-07-28T15:46:16.518Z,20.60
2017-07-28T15:49:19.845Z,20.60
2017-07-28T15:52:23.364Z,20.60
2017-07-28T15:55:27.447Z,20.70
2017-07-28T15:58:30.775Z,20.70
2017-07-28T16:01:34.078Z,20.70
2017-07-28T16:04:37.420Z,20.70
2017-07-28T16:07:40.698Z,20.60
2017-07-28T16:10:44.036Z,20.50
2017-07-28T16:13:47.773Z,20.60
2017-07-28T16:16:51.058Z,20.60
2017-07-28T16:19:54.410Z,20.60
2017-07-28T16:22:57.781Z,20.50
2017-07-28T16:26:01.095Z,20.50
2017-07-28T16:29:04.385Z,20.50
2017-07-28T16:32:08.493Z,20.40
2017-07-28T16:35:12.597Z,20.40
2017-07-28T16:38:15.913Z,20.30
2017-07-28T16:41:20.022Z,20.30
2017-07-28T16:44:23.304Z,20.30
2017-07-28T16:47:26.654Z,20.30
2017-07-28T16:50:29.940Z,20.20
2017-07-28T16:53:33.257Z,20.20
2017-07-28T16:56:36.547Z,20.10
2017-07-28T16:59:39.866Z,20.10
2017-07-28T17:02:43.179Z,20.10
2017-07-28T17:05:46.531Z,20.10
2017-07-28T17:08:49.840Z,20.20
2017-07-28T17:11:53.184Z,20.20
2017-07-28T17:14:56.479Z,20.10
2017-07-28T17:17:59.792Z,20.10
2017-07-28T17:21:03.252Z,20.10
2017-07-28T17:24:06.561Z,20.10
2017-07-28T17:27:09.877Z,20.10
2017-07-28T17:30:13.950Z,20.10
2017-07-28T17:33:17.257Z,20.10
2017-07-28T17:36:20.556Z,20.20
2017-07-28T17:39:23.864Z,20.20
2017-07-28T17:42:27.386Z,20.10
2017-07-28T17:45:31.457Z,20.10
2017-07-28T17:48:34.794Z,20.10
2017-07-28T17:51:38.866Z,20.10
2017-07-28T17:54:42.196Z,20.10
2017-07-28T17:57:46.266Z,20.10
2017-07-28T18:00:49.583Z,20.10
2017-07-28T18:03:53.354Z,20.10
2017-07-28T18:06:56.654Z,20.10
2017-07-28T18:09:59.959Z,20.10
2017-07-28T18:13:03.266Z,20.10
2017-07-28T18:16:06.601Z,20.00
2017-07-28T18:19:10.647Z,20.00
2017-07-28T18:22:13.978Z,20.00
2017-07-28T18:25:17.254Z,20.00
2017-07-28T18:28:20.560Z,20.00
2017-07-28T18:31:23.842Z,19.90
2017-07-28T18:34:27.177Z,19.80
2017-07-28T18:37:30.511Z,19.80
2017-07-28T18:40:33.790Z,19.80
2017-07-28T18:43:37.871Z,19.80
2017-07-28T18:46:41.174Z,19.70
2017-07-28T18:49:44.485Z,19.70
2017-07-28T18:52:48.540Z,19.70
2017-07-28T18:55:51.886Z,19.70
2017-07-28T18:58:55.415Z,19.70
2017-07-28T19:01:58.716Z,19.60
2017-07-28T19:05:02.059Z,19.60
2017-07-28T19:08:06.133Z,19.60
2017-07-28T19:11:09.461Z,19.60
2017-07-28T19:14:12.778Z,19.50
2017-07-28T19:17:16.912Z,19.50
2017-07-28T19:20:20.244Z,19.40
2017-07-28T19:23:23.534Z,19.50
2017-07-28T19:26:26.849Z,19.50
2017-07-28T19:29:30.152Z,19.50
2017-07-28T19:32:33.494Z,19.60
2017-07-28T19:35:36.923Z,19.60
2017-07-28T19:38:40.217Z,19.50
2017-07-28T19:41:43.566Z,19.50
2017-07-28T19:44:46.888Z,19.40
2017-07-28T19:47:50.220Z,19.40
2017-07-28T19:50:53.546Z,19.40
2017-07-28T19:53:56.876Z,19.40
2017-07-28T19:57:00.302Z,19.40
2017-07-28T20:00:03.597Z,19.40
2017-07-28T20:03:06.942Z,19.40
2017-07-28T20:06:11.013Z,19.40
2017-07-28T20:09:14.360Z,19.40
2017-07-28T20:12:18.437Z,19.30
2017-07-28T20:15:21.772Z,19.30
2017-07-28T20:18:25.126Z,19.30
2017-07-28T20:21:28.567Z,19.30
2017-07-28T20:24:33.269Z,19.40
2017-07-28T20:27:37.355Z,19.40
2017-07-28T20:30:40.705Z,19.30
2017-07-28T20:33:44.007Z,19.40
2017-07-28T20:36:47.317Z,19.30
2017-07-28T20:39:50.625Z,19.20
2017-07-28T20:42:53.935Z,19.20
2017-07-28T20:45:57.222Z,19.10
2017-07-28T20:49:00.571Z,19.00
2017-07-28T20:52:04.659Z,19.00
2017-07-28T20:55:07.994Z,19.00
2017-07-28T20:58:11.281Z,19.00
2017-07-28T21:01:14.707Z,19.00
2017-07-28T21:04:18.120Z,19.00
2017-07-28T21:07:21.399Z,19.00
2017-07-28T21:10:24.727Z,19.00
2017-07-28T21:13:28.010Z,19.00
2017-07-28T21:16:31.346Z,19.00
2017-07-28T21:19:35.408Z,18.90
2017-07-28T21:22:38.748Z,18.90
2017-07-28T21:25:42.049Z,18.90
2017-07-28T21:28:46.142Z,18.90
2017-07-28T21:31:49.448Z,18.90
2017-07-28T21:34:52.792Z,18.80
2017-07-28T21:37:56.102Z,18.80
2017-07-28T21:40:59.401Z,18.80
2017-07-28T21:44:02.767Z,18.90
2017-07-28T21:47:06.097Z,18.80
2017-07-28T21:50:09.589Z,18.80
2017-07-28T21:53:12.962Z,18.90
2017-07-28T21:56:16.466Z,18.80
2017-07-28T21:59:20.018Z,18.80
2017-07-28T22:02:23.377Z,18.70
2017-07-28T22:05:26.829Z,18.80
2017-07-28T22:08:30.231Z,18.80
2017-07-28T22:11:34.330Z,18.60
2017-07-28T22:14:37.613Z,18.60
2017-07-28T22:17:40.947Z,18.60
2017-07-28T22:20:45.006Z,18.70
2017-07-28T22:23:48.342Z,18.60
2017-07-28T22:26:51.626Z,18.70
2017-07-28T22:29:54.969Z,18.70
2017-07-28T22:32:58.404Z,18.70
2017-07-28T22:36:01.681Z,18.70
2017-07-28T22:39:04.989Z,18.70
2017-07-28T22:42:08.270Z,18.70
2017-07-28T22:45:11.600Z,18.70
2017-07-28T22:48:14.885Z,18.50
2017-07-28T22:51:18.224Z,18.50
2017-07-28T22:54:22.305Z,18.40
2017-07-28T22:57:25.605Z,18.40
2017-07-28T23:00:28.926Z,18.50
2017-07-28T23:03:32.975Z,18.50
2017-07-28T23:06:36.285Z,18.50
2017-07-28T23:09:39.802Z,18.50
2017-07-28T23:12:43.086Z,18.50
2017-07-28T23:15:46.399Z,18.50
2017-07-28T23:18:49.677Z,18.50
2017-07-28T23:21:52.986Z,18.40
2017-07-28T23:24:56.261Z,18.50
2017-07-28T23:27:59.593Z,18.50
2017-07-28T23:31:02.892Z,18.50
2017-07-28T23:34:06.226Z,18.50
2017-07-28T23:37:09.529Z,18.50
2017-07-28T23:40:12.843Z,18.40
2017-07-28T23:43:16.256Z,18.40
2017-07-28T23:46:19.550Z,18.40
2017-07-28T23:49:22.857Z,18.40
2017-07-28T23:52:26.161Z,18.40
2017-07-28T23:55:29.474Z,18.40
2017-07-28T23:58:32.774Z,18.40
